createdAt,value
2022-10-03T00:01:16.033Z,88.08
2022-10-03T00:04:01.213Z,87.89
2022-10-03T00:06:34.325Z,88.10
2022-10-03T00:09:04.397Z,88.34
2022-10-03T00:11:31.852Z,87.76
2022-10-03T00:14:22.133Z,88.42
2022-10-03T00:16:56.712Z,88.79
2022-10-03T00:19:48.384Z,88.53
2022-10-03T00:22:34.415Z,89.05
2022-10-03T00:25:20.381Z,89.98
2022-10-03T00:27:53.462Z,89.68
2022-10-03T00:30:23.069Z,88.61
2022-10-03T00:33:03.546Z,88.25
2022-10-03T00:35:31.854Z,88.34
2022-10-03T00:38:22.267Z,88.95
2022-10-03T00:41:14.684Z,89.15
2022-10-03T00:43:56.973Z,88.40
2022-10-03T00:46:32.949Z,89.42
2022-10-03T00:49:18.654Z,89.81
2022-10-03T00:52:04.308Z,88.79
2022-10-03T00:54:43.411Z,89.73
2022-10-03T00:57:14.571Z,89.89
2022-10-03T00:59:56.883Z,89.32
2022-10-03T01:02:30.100Z,89.29
2022-10-03T01:05:07.886Z,89.40
2022-10-03T01:07:53.188Z,90.33
2022-10-03T01:10:28.314Z,90.80
2022-10-03T01:12:58.407Z,89.79
2022-10-03T01:15:31.510Z,89.17
2022-10-03T01:18:10.572Z,89.41
2022-10-03T01:20:37.794Z,89.72
2022-10-03T01:23:23.461Z,89.73
2022-10-03T01:25:50.644Z,89.77
2022-10-03T01:28:42.184Z,89.70
2022-10-03T01:31:11.253Z,89.46
2022-10-03T01:33:42.325Z,89.42
2022-10-03T01:36:21.156Z,88.82
2022-10-03T01:38:53.845Z,89.65
2022-10-03T01:41:28.037Z,90.17
2022-10-03T01:44:00.883Z,90.19
2022-10-03T01:46:45.520Z,90.22
2022-10-03T01:49:28.392Z,90.80
2022-10-03T01:52:00.749Z,91.28
2022-10-03T01:54:54.138Z,90.38
2022-10-03T01:57:35.414Z,91.10
2022-10-03T02:00:09.655Z,89.97
2022-10-03T02:02:50.365Z,89.96
2022-10-03T02:05:23.043Z,89.82
2022-10-03T02:08:04.222Z,90.57
2022-10-03T02:10:41.580Z,90.48
2022-10-03T02:13:31.156Z,89.93
2022-10-03T02:15:58.434Z,90.71
2022-10-03T02:18:49.129Z,90.60
2022-10-03T02:21:21.273Z,90.36
2022-10-03T02:23:49.843Z,90.71
2022-10-03T02:26:26.273Z,90.04
2022-10-03T02:28:55.496Z,89.69
2022-10-03T02:31:28.519Z,89.45
2022-10-03T02:34:01.858Z,90.10
2022-10-03T02:36:37.848Z,89.59
2022-10-03T02:39:23.904Z,88.74
2022-10-03T02:42:18.506Z,88.69
2022-10-03T02:44:51.503Z,88.84
2022-10-03T02:47:36.446Z,89.38
2022-10-03T02:50:22.733Z,89.78
2022-10-03T02:52:49.632Z,88.54
2022-10-03T02:55:36.387Z,88.95
2022-10-03T02:58:06.384Z,88.27
2022-10-03T03:00:53.608Z,88.26
2022-10-03T03:03:29.703Z,88.85
2022-10-03T03:06:13.335Z,88.46
2022-10-03T03:09:15.795Z,88.11
2022-10-03T03:12:05.820Z,88.32
2022-10-03T03:14:51.433Z,88.48
2022-10-03T03:17:18.827Z,88.00
2022-10-03T03:20:02.703Z,88.14
2022-10-03T03:22:33.110Z,88.17
2022-10-03T03:25:06.092Z,87.87
2022-10-03T03:27:52.151Z,88.67
2022-10-03T03:30:21.388Z,89.17
2022-10-03T03:33:08.827Z,88.51
2022-10-03T03:35:54.695Z,89.17
2022-10-03T03:38:21.941Z,89.43
2022-10-03T03:40:52.192Z,89.55
2022-10-03T03:43:29.036Z,89.21
2022-10-03T03:46:21.516Z,89.14
2022-10-03T03:49:09.565Z,88.34
2022-10-03T03:51:55.285Z,88.37
2022-10-03T03:54:50.818Z,88.21
2022-10-03T03:57:18.056Z,87.42
2022-10-03T03:59:53.869Z,88.42
2022-10-03T04:02:53.560Z,88.54
2022-10-03T04:05:20.471Z,88.37
2022-10-03T04:07:53.801Z,88.11
2022-10-03T04:10:23.756Z,87.96
2022-10-03T04:13:03.535Z,87.67
2022-10-03T04:15:49.441Z,87.81
2022-10-03T04:18:34.931Z,87.11
2022-10-03T04:21:16.868Z,87.90
2022-10-03T04:23:46.318Z,87.48
2022-10-03T04:26:30.333Z,87.59
2022-10-03T04:29:06.781Z,88.35
2022-10-03T04:31:52.342Z,87.70
2022-10-03T04:34:26.818Z,88.41
2022-10-03T04:36:53.998Z,88.47
2022-10-03T04:39:42.668Z,88.23
2022-10-03T04:42:32.003Z,88.05
2022-10-03T04:44:59.135Z,88.47
2022-10-03T04:47:33.779Z,88.55
2022-10-03T04:50:22.984Z,88.38
2022-10-03T04:53:08.262Z,87.79
2022-10-03T04:55:35.609Z,87.82
2022-10-03T04:58:07.958Z,87.74
2022-10-03T05:00:48.305Z,87.71
2022-10-03T05:03:15.796Z,87.18
2022-10-03T05:05:58.793Z,87.49
2022-10-03T05:08:40.483Z,88.68
2022-10-03T05:11:19.580Z,88.68
2022-10-03T05:13:53.803Z,88.84
2022-10-03T05:16:22.094Z,89.81
2022-10-03T05:18:52.287Z,91.14
2022-10-03T05:21:28.405Z,91.43
2022-10-03T05:24:11.284Z,92.00
2022-10-03T05:26:45.382Z,91.60
2022-10-03T05:29:15.773Z,90.81
2022-10-03T05:31:44.608Z,91.67
2022-10-03T05:34:50.262Z,91.06
2022-10-03T05:37:29.726Z,91.91
2022-10-03T05:40:19.828Z,91.93
2022-10-03T05:42:51.235Z,91.27
2022-10-03T05:45:36.997Z,91.63
2022-10-03T05:48:07.407Z,91.35
2022-10-03T05:50:41.712Z,91.58
2022-10-03T05:53:17.995Z,91.15
2022-10-03T05:55:44.888Z,90.66
2022-10-03T05:58:24.226Z,90.99
2022-10-03T06:01:11.335Z,90.93
2022-10-03T06:03:44.470Z,91.20
2022-10-03T06:06:24.825Z,91.19
2022-10-03T06:09:18.302Z,89.92
2022-10-03T06:11:54.116Z,89.81
2022-10-03T06:14:50.055Z,89.82
2022-10-03T06:17:29.238Z,88.58
2022-10-03T06:20:15.117Z,87.30
2022-10-03T06:23:05.596Z,86.51
2022-10-03T06:25:35.933Z,86.67
2022-10-03T06:28:02.851Z,85.47
2022-10-03T06:30:32.531Z,85.57
2022-10-03T06:33:16.181Z,84.22
2022-10-03T06:35:52.602Z,83.53
2022-10-03T06:38:36.526Z,84.40
2022-10-03T06:41:12.426Z,84.04
2022-10-03T06:43:48.517Z,83.05
2022-10-03T06:46:26.171Z,82.82
2022-10-03T06:49:02.356Z,83.08
2022-10-03T06:51:32.357Z,84.10
2022-10-03T06:54:02.529Z,83.82
2022-10-03T06:56:49.724Z,83.08
2022-10-03T06:59:20.300Z,82.90
2022-10-03T07:02:14.214Z,82.72
2022-10-03T07:04:50.341Z,81.80
2022-10-03T07:07:17.441Z,82.39
2022-10-03T07:09:54.442Z,81.31
2022-10-03T07:12:39.438Z,79.47
2022-10-03T07:15:50.841Z,78.11
2022-10-03T07:18:33.541Z,76.81
2022-10-03T07:21:31.976Z,75.95
2022-10-03T07:24:11.275Z,75.22
2022-10-03T07:26:54.077Z,75.22
2022-10-03T07:29:27.177Z,75.75
2022-10-03T07:32:03.211Z,76.33
2022-10-03T07:34:48.837Z,77.08
2022-10-03T07:37:46.943Z,76.85
2022-10-03T07:40:32.416Z,75.36
2022-10-03T07:43:20.273Z,74.58
2022-10-03T07:46:07.441Z,75.06
2022-10-03T07:49:00.916Z,75.47
2022-10-03T07:51:45.969Z,73.80
2022-10-03T07:54:19.529Z,73.80
2022-10-03T07:57:05.001Z,72.64
2022-10-03T07:59:52.502Z,71.30
2022-10-03T08:02:45.941Z,70.39
2022-10-03T08:05:37.627Z,69.33
2022-10-03T08:08:23.393Z,67.67
2022-10-03T08:11:14.991Z,66.02
2022-10-03T08:14:00.480Z,65.70
2022-10-03T08:16:34.103Z,66.25
2022-10-03T08:19:19.616Z,65.28
2022-10-03T08:21:46.684Z,62.89
2022-10-03T08:24:36.873Z,62.06
2022-10-03T08:27:19.285Z,61.56
2022-10-03T08:29:46.200Z,60.56
2022-10-03T08:32:31.945Z,58.44
2022-10-03T08:34:58.798Z,53.79
2022-10-03T08:37:52.120Z,51.47
2022-10-03T08:40:38.189Z,48.86
2022-10-03T08:43:23.935Z,48.96
2022-10-03T08:45:51.955Z,51.73
2022-10-03T08:48:37.958Z,53.29
2022-10-03T08:51:34.439Z,55.48
2022-10-03T08:54:02.815Z,53.79
2022-10-03T08:56:41.751Z,50.69
2022-10-03T08:59:14.669Z,47.46
2022-10-03T09:01:41.858Z,46.76
2022-10-03T09:04:15.694Z,46.24
2022-10-03T09:07:18.095Z,47.80
2022-10-03T09:09:46.049Z,49.51
2022-10-03T09:12:19.225Z,52.07
2022-10-03T09:14:58.365Z,52.74
2022-10-03T09:17:25.214Z,53.97
2022-10-03T09:20:04.558Z,55.12
2022-10-03T09:22:50.222Z,56.50
2022-10-03T09:25:36.187Z,58.53
2022-10-03T09:28:25.485Z,61.17
2022-10-03T09:31:11.684Z,61.62
2022-10-03T09:33:50.945Z,61.91
2022-10-03T09:36:26.969Z,62.04
2022-10-03T09:38:56.914Z,61.69
2022-10-03T09:41:28.554Z,60.43
2022-10-03T09:44:04.726Z,60.93
2022-10-03T09:47:10.059Z,61.26
2022-10-03T09:49:45.758Z,62.30
2022-10-03T09:52:12.856Z,61.70
2022-10-03T09:54:59.858Z,60.84
2022-10-03T09:57:52.114Z,59.94
2022-10-03T10:00:26.128Z,58.21
2022-10-03T10:02:59.410Z,56.67
2022-10-03T10:05:50.811Z,55.93
2022-10-03T10:08:20.998Z,55.54
2022-10-03T10:10:53.249Z,55.12
2022-10-03T10:14:02.788Z,55.07
2022-10-03T10:16:39.619Z,54.19
2022-10-03T10:19:27.272Z,53.55
2022-10-03T10:21:57.006Z,52.20
2022-10-03T10:24:33.221Z,51.22
2022-10-03T10:27:09.369Z,50.75
2022-10-03T10:29:39.569Z,51.89
2022-10-03T10:32:32.424Z,50.62
2022-10-03T10:35:18.023Z,50.81
2022-10-03T10:37:47.805Z,50.86
2022-10-03T10:40:33.690Z,50.66
2022-10-03T10:43:15.724Z,51.42
2022-10-03T10:45:52.533Z,51.61
2022-10-03T10:48:39.632Z,50.48
2022-10-03T10:51:24.098Z,51.45
2022-10-03T10:54:09.734Z,51.27
2022-10-03T10:56:49.662Z,51.74
2022-10-03T10:59:28.705Z,52.75
2022-10-03T11:02:14.811Z,52.96
2022-10-03T11:05:00.920Z,54.16
2022-10-03T11:07:57.198Z,53.04
2022-10-03T11:10:26.814Z,54.19
2022-10-03T11:13:14.304Z,54.45
2022-10-03T11:16:00.497Z,54.59
2022-10-03T11:18:50.497Z,53.78
2022-10-03T11:21:33.378Z,53.87
2022-10-03T11:24:15.836Z,55.24
2022-10-03T11:26:42.953Z,56.08
2022-10-03T11:29:38.514Z,55.08
2022-10-03T11:32:24.813Z,54.47
2022-10-03T11:35:10.797Z,54.11
2022-10-03T11:37:46.585Z,53.14
2022-10-03T11:40:31.458Z,54.14
2022-10-03T11:43:27.181Z,55.60
2022-10-03T11:46:03.666Z,56.29
2022-10-03T11:48:34.448Z,56.07
2022-10-03T11:51:15.800Z,55.90
2022-10-03T11:54:26.660Z,56.01
2022-10-03T11:57:02.798Z,55.58
2022-10-03T11:59:29.645Z,56.21
2022-10-03T12:02:18.147Z,57.02
2022-10-03T12:04:51.518Z,58.17
2022-10-03T12:07:40.713Z,57.88
2022-10-03T12:10:17.091Z,57.18
2022-10-03T12:12:46.354Z,56.86
2022-10-03T12:15:34.491Z,55.86
2022-10-03T12:18:21.887Z,53.92
2022-10-03T12:21:08.029Z,53.66
2022-10-03T12:23:35.322Z,54.27
2022-10-03T12:26:03.620Z,54.75
2022-10-03T12:28:37.209Z,54.76
2022-10-03T12:31:25.014Z,56.23
2022-10-03T12:33:52.085Z,55.69
2022-10-03T12:36:25.803Z,55.05
2022-10-03T12:38:52.760Z,55.92
2022-10-03T12:41:24.324Z,53.91
2022-10-03T12:44:09.692Z,54.07
2022-10-03T12:46:36.773Z,53.85
2022-10-03T12:49:06.367Z,54.77
2022-10-03T12:51:33.430Z,54.83
2022-10-03T12:54:07.961Z,55.10
2022-10-03T12:57:10.817Z,54.87
2022-10-03T12:59:38.786Z,55.98
2022-10-03T13:02:08.688Z,56.60
2022-10-03T13:04:54.706Z,57.28
2022-10-03T13:07:28.021Z,57.46
2022-10-03T13:10:02.031Z,58.56
2022-10-03T13:12:31.882Z,59.52
2022-10-03T13:15:04.189Z,59.80
2022-10-03T13:17:40.682Z,60.23
2022-10-03T13:20:22.884Z,61.73
2022-10-03T13:22:50.008Z,61.92
2022-10-03T13:25:21.948Z,63.58
2022-10-03T13:27:52.077Z,66.12
2022-10-03T13:30:22.930Z,69.58
2022-10-03T13:32:50.257Z,72.04
2022-10-03T13:35:42.621Z,73.80
2022-10-03T13:38:28.526Z,73.91
2022-10-03T13:41:14.286Z,74.23
2022-10-03T13:43:47.300Z,75.25
2022-10-03T13:46:22.325Z,75.73
2022-10-03T13:49:12.073Z,76.30
2022-10-03T13:51:50.919Z,76.31
2022-10-03T13:54:24.928Z,76.30
2022-10-03T13:56:59.074Z,77.13
2022-10-03T13:59:27.924Z,77.23
2022-10-03T14:02:09.331Z,76.38
2022-10-03T14:04:47.959Z,76.18
2022-10-03T14:07:35.670Z,75.14
2022-10-03T14:10:03.949Z,75.25
2022-10-03T14:12:54.761Z,74.86
2022-10-03T14:15:27.213Z,75.08
2022-10-03T14:17:59.246Z,75.51
2022-10-03T14:20:37.499Z,75.96
2022-10-03T14:23:26.387Z,75.85
2022-10-03T14:26:06.342Z,79.25
2022-10-03T14:28:45.588Z,82.39
2022-10-03T14:31:43.471Z,83.64
2022-10-03T14:34:29.629Z,85.41
2022-10-03T14:37:26.571Z,85.27
2022-10-03T14:40:14.442Z,84.54
2022-10-03T14:42:44.685Z,83.83
2022-10-03T14:45:13.980Z,83.53
2022-10-03T14:47:43.834Z,83.87
2022-10-03T14:50:21.727Z,83.37
2022-10-03T14:53:03.072Z,83.45
2022-10-03T14:55:34.453Z,83.83
2022-10-03T14:58:12.015Z,83.78
2022-10-03T15:00:56.446Z,83.80
2022-10-03T15:03:27.995Z,83.80
2022-10-03T15:05:55.622Z,83.60
2022-10-03T15:08:32.452Z,83.25
2022-10-03T15:11:00.811Z,82.96
2022-10-03T15:15:56.780Z,83.39
2022-10-03T15:18:26.729Z,83.79
2022-10-03T15:20:57.829Z,84.13
2022-10-03T15:23:43.632Z,84.67
2022-10-03T15:26:18.964Z,84.90
2022-10-03T15:28:48.735Z,85.07
2022-10-03T15:31:35.877Z,85.25
2022-10-03T15:34:06.219Z,85.83
2022-10-03T15:36:38.250Z,86.83
2022-10-03T15:39:16.453Z,88.15
2022-10-03T15:42:02.013Z,88.26
2022-10-03T15:44:39.304Z,86.68
2022-10-03T15:47:14.067Z,85.85
2022-10-03T15:49:48.885Z,86.40
2022-10-03T15:52:21.723Z,86.99
2022-10-03T15:54:56.877Z,87.30
2022-10-03T15:57:37.133Z,87.55
2022-10-03T16:00:07.349Z,88.01
2022-10-03T16:02:35.760Z,88.34
2022-10-03T16:05:07.541Z,88.65
2022-10-03T16:07:42.928Z,89.20
2022-10-03T16:10:21.894Z,89.86
2022-10-03T16:12:50.842Z,90.01
2022-10-03T16:15:37.839Z,90.37
2022-10-03T16:18:09.555Z,90.24
2022-10-03T16:20:41.844Z,91.01
2022-10-03T16:23:10.067Z,90.57
2022-10-03T16:25:45.257Z,90.26
2022-10-03T16:28:14.360Z,89.79
2022-10-03T16:30:44.819Z,89.63
2022-10-03T16:33:15.025Z,89.71
2022-10-03T16:35:42.262Z,89.24
2022-10-03T16:38:18.942Z,89.87
2022-10-03T16:40:57.277Z,88.80
2022-10-03T16:43:26.752Z,88.73
2022-10-03T16:45:56.119Z,87.80
2022-10-03T16:48:44.107Z,86.88
2022-10-03T16:51:21.023Z,86.53
2022-10-03T16:53:50.774Z,86.28
2022-10-03T16:56:21.276Z,86.18
2022-10-03T16:58:52.603Z,86.34
2022-10-03T17:01:31.992Z,86.40
2022-10-03T17:04:12.741Z,86.12
2022-10-03T17:06:40.635Z,85.41
2022-10-03T17:09:21.897Z,85.02
2022-10-03T17:11:52.901Z,84.67
2022-10-03T17:14:20.941Z,83.48
2022-10-03T17:16:52.746Z,82.75
2022-10-03T17:19:31.925Z,81.83
2022-10-03T17:22:05.420Z,80.87
2022-10-03T17:24:32.889Z,80.28
2022-10-03T17:27:03.169Z,80.03
2022-10-03T17:29:30.077Z,80.49
2022-10-03T17:32:03.150Z,80.06
2022-10-03T17:34:30.435Z,79.25
2022-10-03T17:36:57.787Z,79.24
2022-10-03T17:39:38.157Z,78.74
2022-10-03T17:42:17.210Z,78.84
2022-10-03T17:45:07.217Z,79.35
2022-10-03T17:47:57.651Z,79.71
2022-10-03T17:50:24.910Z,79.52
2022-10-03T17:52:54.684Z,78.56
2022-10-03T17:55:26.510Z,79.15
2022-10-03T17:57:55.668Z,78.92
2022-10-03T18:00:25.323Z,78.28
2022-10-03T18:03:04.426Z,79.11
2022-10-03T18:05:55.778Z,79.01
2022-10-03T18:08:44.181Z,79.28
2022-10-03T18:11:21.938Z,80.20
2022-10-03T18:13:52.631Z,79.99
2022-10-03T18:16:23.250Z,79.93
2022-10-03T18:19:20.727Z,79.76
2022-10-03T18:21:50.865Z,79.80
2022-10-03T18:24:20.885Z,79.67
2022-10-03T18:26:58.025Z,80.01
2022-10-03T18:29:33.230Z,80.10
2022-10-03T18:32:03.639Z,80.76
2022-10-03T18:34:35.552Z,81.19
2022-10-03T18:37:16.916Z,81.67
2022-10-03T18:39:44.550Z,81.08
2022-10-03T18:42:14.557Z,80.43
2022-10-03T18:44:44.709Z,81.08
2022-10-03T18:47:12.291Z,80.91
2022-10-03T18:49:40.210Z,82.02
2022-10-03T18:52:33.150Z,81.25
2022-10-03T18:55:03.197Z,81.67
2022-10-03T18:57:36.385Z,81.62
2022-10-03T19:00:14.569Z,81.71
2022-10-03T19:02:41.361Z,82.19
2022-10-03T19:05:08.436Z,81.88
2022-10-03T19:07:43.250Z,82.44
2022-10-03T19:10:23.803Z,82.57
2022-10-03T19:12:55.226Z,81.98
2022-10-03T19:15:33.255Z,82.61
2022-10-03T19:18:00.134Z,82.67
2022-10-03T19:20:28.977Z,82.13
2022-10-03T19:23:05.151Z,82.25
2022-10-03T19:25:33.958Z,81.99
2022-10-03T19:28:05.508Z,82.03
2022-10-03T19:30:33.041Z,81.55
2022-10-03T19:33:06.344Z,82.17
2022-10-03T19:35:35.382Z,83.05
2022-10-03T19:38:17.793Z,82.76
2022-10-03T19:40:50.695Z,82.62
2022-10-03T19:43:31.091Z,82.43
2022-10-03T19:46:00.764Z,82.44
2022-10-03T19:48:29.723Z,82.17
2022-10-03T19:51:07.105Z,82.58
2022-10-03T19:53:35.341Z,82.21
2022-10-03T19:56:04.080Z,82.67
2022-10-03T19:58:31.362Z,82.10
2022-10-03T20:00:58.960Z,81.88
2022-10-03T20:03:28.662Z,82.04
2022-10-03T20:05:55.840Z,82.51
2022-10-03T20:08:28.846Z,82.22
2022-10-03T20:10:55.721Z,82.72
2022-10-03T20:13:23.765Z,82.37
2022-10-03T20:15:52.483Z,82.98
2022-10-03T20:18:27.395Z,83.03
2022-10-03T20:20:55.780Z,83.21
2022-10-03T20:23:24.933Z,83.51
2022-10-03T20:25:55.692Z,83.67
2022-10-03T20:28:43.551Z,83.02
2022-10-03T20:31:11.403Z,83.21
2022-10-03T20:33:38.806Z,83.20
2022-10-03T20:36:20.882Z,83.33
2022-10-03T20:38:48.146Z,83.63
2022-10-03T20:41:21.990Z,83.99
2022-10-03T20:44:09.567Z,83.71
2022-10-03T20:46:43.245Z,83.24
2022-10-03T20:49:14.114Z,83.92
2022-10-03T20:52:01.352Z,83.68
2022-10-03T20:54:48.021Z,84.25
2022-10-03T20:57:21.020Z,84.05
2022-10-03T20:59:51.776Z,83.84
2022-10-03T21:02:18.627Z,84.89
2022-10-03T21:05:03.305Z,85.46
2022-10-03T21:07:35.641Z,84.63
2022-10-03T21:10:02.503Z,85.12
2022-10-03T21:12:33.115Z,84.74
2022-10-03T21:15:30.105Z,85.52
2022-10-03T21:17:57.380Z,86.18
2022-10-03T21:20:28.346Z,86.27
2022-10-03T21:22:59.020Z,86.29
2022-10-03T21:25:31.606Z,85.76
2022-10-03T21:27:59.038Z,86.61
2022-10-03T21:30:49.113Z,86.65
2022-10-03T21:33:21.201Z,86.18
2022-10-03T21:35:50.964Z,86.22
2022-10-03T21:38:29.459Z,86.25
2022-10-03T21:40:56.637Z,86.95
2022-10-03T21:43:35.537Z,87.03
2022-10-03T21:46:16.481Z,87.14
2022-10-03T21:48:55.613Z,87.19
2022-10-03T21:51:31.606Z,87.88
2022-10-03T21:54:10.846Z,88.00
2022-10-03T21:56:50.125Z,88.42
2022-10-03T21:59:40.334Z,88.83
2022-10-03T22:02:07.447Z,89.00
2022-10-03T22:04:48.468Z,88.82
2022-10-03T22:07:17.027Z,89.69
2022-10-03T22:09:45.574Z,89.14
2022-10-03T22:12:12.716Z,88.96
2022-10-03T22:14:45.513Z,89.36
2022-10-03T22:17:21.622Z,89.49
2022-10-03T22:20:12.362Z,89.71
2022-10-03T22:22:49.989Z,90.20
2022-10-03T22:25:32.617Z,90.41
2022-10-03T22:27:59.512Z,90.01
2022-10-03T22:30:27.705Z,90.66
2022-10-03T22:33:13.402Z,91.46
2022-10-03T22:35:43.782Z,91.07
2022-10-03T22:38:10.754Z,91.72
2022-10-03T22:40:38.118Z,91.63
2022-10-03T22:43:06.402Z,91.16
2022-10-03T22:45:37.533Z,91.07
2022-10-03T22:48:10.105Z,90.89
2022-10-03T22:50:41.712Z,90.47
2022-10-03T22:53:10.949Z,90.20
2022-10-03T22:55:38.781Z,89.87
2022-10-03T22:58:08.102Z,90.71
2022-10-03T23:00:35.822Z,90.52
2022-10-03T23:03:05.140Z,90.46
2022-10-03T23:05:50.988Z,90.55
2022-10-03T23:08:18.012Z,90.96
2022-10-03T23:10:55.208Z,90.96
2022-10-03T23:13:42.420Z,91.84
2022-10-03T23:16:09.423Z,92.44
2022-10-03T23:18:39.548Z,92.75
2022-10-03T23:21:10.835Z,91.81
2022-10-03T23:23:56.205Z,92.05
2022-10-03T23:26:38.366Z,93.38
2022-10-03T23:29:12.921Z,93.41
2022-10-03T23:31:50.700Z,93.33
2022-10-03T23:34:50.336Z,93.41
2022-10-03T23:37:17.213Z,93.41
2022-10-03T23:39:44.655Z,93.89
2022-10-03T23:42:19.426Z,93.94
2022-10-03T23:44:49.231Z,94.73
2022-10-03T23:47:19.148Z,94.67
2022-10-03T23:49:47.312Z,95.00
2022-10-03T23:52:19.715Z,95.09
2022-10-03T23:54:48.221Z,95.42
2022-10-03T23:57:17.127Z,95.71
2022-10-03T23:59:44.469Z,95.70
